Terminal Aerodrome Forecast
Issued by NWS

Current Version | Previous Version | Text Only | Print | Product List | Glossary On
Versions: 1 2 3 4 5 6 7 8 9 10 11 12 13 14 15 16 17 18 19 20 21 22 23 24 25 26
000
FTUS46 KSGX 010520
TAFSAN
TAF
KSAN 010520Z 0106/0212 VRB05KT P6SM OVC012
     FM011700 29010KT P6SM SCT018 SCT250
     FM020200 VRB05KT P6SM SCT015 SCT250
     FM020500 VRB04KT P6SM OVC015=

USA.gov is the U.S. government's official web portal to all federal, state and local government web resources and services.